Time;durP1;ratioP1;P1;durP2;ratioP2;P2;SDS_P1;SDS_P2;PMS_P1;PMS_P2;Temp;Humidity;BMP_temperature;BMP_pressure;BME280_temperature;BME280_humidity;BME280_pressure;Samples;Min_cycle;Max_cycle;Signal;HPM_P1;HPM_P2
2023/05/25 00:00:10;;;;;;;14.33;4.47;;;12.40;99.90;;;;;;5052754;28;20224;-61
2023/05/25 00:02:38;;;;;;;16.00;4.90;;;12.40;99.90;;;;;;5052450;28;20545;-62
2023/05/25 00:05:05;;;;;;;12.23;4.93;;;12.40;99.90;;;;;;5052491;28;20262;-62
2023/05/25 00:07:31;;;;;;;17.13;5.03;;;12.40;99.90;;;;;;5052233;28;20600;-61
2023/05/25 00:09:56;;;;;;;8.97;4.40;;;12.40;99.90;;;;;;5053209;28;20205;-62
2023/05/25 00:12:22;;;;;;;9.57;4.30;;;12.40;99.90;;;;;;5051786;28;20261;-61
2023/05/25 00:14:47;;;;;;;11.13;4.23;;;12.30;99.90;;;;;;5051333;28;20474;-61
2023/05/25 00:17:14;;;;;;;15.53;5.00;;;12.30;99.90;;;;;;5053707;28;20213;-61
2023/05/25 00:19:41;;;;;;;12.47;4.27;;;12.30;99.90;;;;;;5053555;28;20244;-62
2023/05/25 00:22:08;;;;;;;17.37;4.93;;;12.30;99.90;;;;;;5054824;28;20172;-62
2023/05/25 00:24:33;;;;;;;9.73;5.13;;;12.30;99.90;;;;;;5056868;28;20166;-62
2023/05/25 00:26:59;;;;;;;12.23;4.87;;;12.30;99.90;;;;;;5057106;28;20256;-61
2023/05/25 00:29:25;;;;;;;11.47;5.00;;;12.30;99.90;;;;;;5053009;28;20174;-61
2023/05/25 00:31:51;;;;;;;13.20;5.03;;;12.20;99.90;;;;;;5051424;28;20224;-62
2023/05/25 00:34:17;;;;;;;14.67;4.80;;;12.20;99.90;;;;;;5052385;28;20180;-62
2023/05/25 00:36:42;;;;;;;10.63;4.20;;;12.20;99.90;;;;;;5051532;28;20209;-62
2023/05/25 00:39:08;;;;;;;14.83;4.97;;;12.20;99.90;;;;;;5051223;28;20173;-62
2023/05/25 00:41:40;;;;;;;13.97;5.20;;;12.20;99.90;;;;;;5052469;28;20169;-61
2023/05/25 00:44:06;;;;;;;19.00;4.77;;;12.20;99.90;;;;;;5051125;28;20169;-61
2023/05/25 00:46:37;;;;;;;14.67;4.87;;;12.10;99.90;;;;;;5051013;28;20178;-63
2023/05/25 00:49:03;;;;;;;11.70;4.87;;;12.10;99.90;;;;;;5052547;28;20539;-61
2023/05/25 00:51:31;;;;;;;11.37;5.07;;;12.00;99.90;;;;;;5052153;28;20780;-62
2023/05/25 00:53:57;;;;;;;16.87;5.67;;;12.00;99.90;;;;;;5052851;28;20178;-62
2023/05/25 00:56:29;;;;;;;18.87;6.37;;;12.00;99.90;;;;;;5054807;28;20201;-61
2023/05/25 00:58:57;;;;;;;14.07;4.90;;;12.00;99.90;;;;;;5054307;28;20205;-61
2023/05/25 01:01:25;;;;;;;11.00;5.07;;;12.00;99.90;;;;;;5053365;28;20196;-61
2023/05/25 01:03:54;;;;;;;13.83;6.03;;;12.00;99.90;;;;;;5052895;28;20180;-61
2023/05/25 01:06:21;;;;;;;14.87;6.03;;;12.00;99.90;;;;;;5055138;28;20177;-61
2023/05/25 01:08:59;;;;;;;13.83;5.77;;;11.80;99.90;;;;;;5048947;28;20174;-61
2023/05/25 01:11:30;;;;;;;15.50;5.57;;;11.80;99.90;;;;;;5048216;28;20272;-62
2023/05/25 01:13:57;;;;;;;12.33;5.70;;;11.80;99.90;;;;;;5048268;28;20179;-61
2023/05/25 01:16:27;;;;;;;13.63;6.10;;;11.80;99.90;;;;;;5046886;28;20201;-61
2023/05/25 01:18:52;;;;;;;14.17;5.97;;;11.80;99.90;;;;;;5047031;28;20236;-60
2023/05/25 01:21:28;;;;;;;13.77;6.03;;;11.80;99.90;;;;;;5045767;28;20170;-61
2023/05/25 01:24:16;;;;;;;11.30;5.67;;;11.80;99.90;;;;;;5042204;28;20180;-62
2023/05/25 01:26:47;;;;;;;20.87;6.67;;;11.80;99.90;;;;;;5043331;28;20173;-61
2023/05/25 01:29:14;;;;;;;15.73;5.60;;;11.80;99.90;;;;;;5045038;28;20379;-61
2023/05/25 01:31:40;;;;;;;17.90;7.03;;;11.70;99.90;;;;;;5047743;28;20207;-59
2023/05/25 01:34:07;;;;;;;17.20;6.17;;;11.70;99.90;;;;;;5049431;28;20180;-61
2023/05/25 01:36:33;;;;;;;16.63;6.67;;;11.70;99.90;;;;;;5051009;28;20209;-62
2023/05/25 01:38:58;;;;;;;13.90;6.80;;;11.70;99.90;;;;;;5052797;28;20176;-61
2023/05/25 01:41:25;;;;;;;13.47;5.47;;;11.70;99.90;;;;;;5052332;28;20176;-61
2023/05/25 01:43:52;;;;;;;10.90;5.70;;;11.70;99.90;;;;;;5053602;28;20231;-61
2023/05/25 01:46:35;;;;;;;12.13;5.83;;;11.70;99.90;;;;;;5054816;28;20184;-62
2023/05/25 01:49:07;;;;;;;14.07;6.17;;;11.70;99.90;;;;;;5054044;28;20184;-62
2023/05/25 01:51:54;;;;;;;14.63;6.20;;;11.70;99.90;;;;;;5055601;28;20178;-61
2023/05/25 01:54:22;;;;;;;16.47;6.33;;;11.70;99.90;;;;;;5053884;28;20546;-61
2023/05/25 01:56:49;;;;;;;17.73;8.40;;;11.70;99.90;;;;;;5052163;28;20212;-61
2023/05/25 01:59:19;;;;;;;19.27;6.93;;;11.60;99.90;;;;;;5053275;28;20170;-62
2023/05/25 02:01:46;;;;;;;16.57;7.07;;;11.60;99.90;;;;;;5052590;28;20264;-63
2023/05/25 02:04:11;;;;;;;14.93;6.57;;;11.60;99.90;;;;;;5052033;28;20177;-62
2023/05/25 02:06:37;;;;;;;15.13;6.83;;;11.60;99.90;;;;;;5052210;28;20365;-63
2023/05/25 02:09:03;;;;;;;19.07;7.83;;;11.60;99.90;;;;;;5051755;28;20179;-62
2023/05/25 02:11:29;;;;;;;16.87;7.17;;;11.60;99.90;;;;;;5052463;28;20204;-62
2023/05/25 02:13:54;;;;;;;15.80;8.30;;;11.50;99.90;;;;;;5052544;28;20188;-63
2023/05/25 02:16:20;;;;;;;16.83;7.23;;;11.50;99.90;;;;;;5050862;28;20230;-62
2023/05/25 02:18:46;;;;;;;19.27;7.90;;;11.50;99.90;;;;;;5050462;28;20229;-62
2023/05/25 02:21:11;;;;;;;19.27;8.37;;;11.50;99.90;;;;;;5051597;28;20576;-62
2023/05/25 02:23:37;;;;;;;19.03;8.70;;;11.50;99.90;;;;;;5050185;28;20161;-62
2023/05/25 02:26:03;;;;;;;18.00;8.87;;;11.50;99.90;;;;;;5051811;28;20173;-62
2023/05/25 02:28:28;;;;;;;15.40;7.80;;;11.40;99.90;;;;;;5050214;28;20170;-62
2023/05/25 02:30:54;;;;;;;15.83;8.37;;;11.40;99.90;;;;;;5051295;28;20231;-62
2023/05/25 02:33:19;;;;;;;17.67;8.97;;;11.50;99.90;;;;;;5053396;28;20173;-62
2023/05/25 02:35:45;;;;;;;18.37;8.50;;;11.40;99.90;;;;;;5054283;28;20372;-63
2023/05/25 02:38:11;;;;;;;17.90;7.80;;;11.40;99.90;;;;;;5053441;28;20175;-63
2023/05/25 02:40:36;;;;;;;24.70;8.50;;;11.40;99.90;;;;;;5054308;28;20198;-62
2023/05/25 02:43:02;;;;;;;21.37;7.67;;;11.40;99.90;;;;;;5054397;28;20173;-62
2023/05/25 02:45:28;;;;;;;20.70;7.50;;;11.40;99.90;;;;;;5053015;28;20215;-62
2023/05/25 02:47:53;;;;;;;14.87;7.63;;;11.40;99.90;;;;;;5053074;28;20185;-61
2023/05/25 02:50:19;;;;;;;17.97;7.73;;;11.40;99.90;;;;;;5052465;28;20309;-61
2023/05/25 02:52:45;;;;;;;18.17;7.90;;;11.30;99.90;;;;;;5054590;28;20162;-61
2023/05/25 02:55:12;;;;;;;14.43;6.70;;;11.40;99.90;;;;;;5053018;28;20529;-61
2023/05/25 02:57:37;;;;;;;21.93;7.40;;;11.40;99.90;;;;;;5053303;28;20193;-63
2023/05/25 03:00:06;;;;;;;15.57;7.30;;;11.40;99.90;;;;;;5052759;28;20219;-62
2023/05/25 03:02:32;;;;;;;20.97;7.20;;;11.30;99.90;;;;;;5052496;28;20213;-61
2023/05/25 03:04:59;;;;;;;16.60;7.60;;;11.30;99.90;;;;;;5052529;28;20200;-61
2023/05/25 03:07:25;;;;;;;17.23;7.07;;;11.30;99.90;;;;;;5051890;28;20170;-61
2023/05/25 03:09:51;;;;;;;14.20;7.07;;;11.30;99.90;;;;;;5056244;28;20192;-62
2023/05/25 03:12:17;;;;;;;15.23;7.27;;;11.20;99.90;;;;;;5056464;28;20177;-62
2023/05/25 03:14:43;;;;;;;18.37;7.57;;;11.20;99.90;;;;;;5056526;28;20335;-62
2023/05/25 03:17:08;;;;;;;21.53;7.87;;;11.20;99.90;;;;;;5055672;28;20249;-62
2023/05/25 03:19:34;;;;;;;18.63;7.27;;;11.20;99.90;;;;;;5054326;28;20331;-61
2023/05/25 03:22:00;;;;;;;16.57;8.27;;;11.20;99.90;;;;;;5054427;28;20216;-62
2023/05/25 03:24:27;;;;;;;21.70;7.70;;;11.10;99.90;;;;;;5055385;28;20172;-61
2023/05/25 03:26:53;;;;;;;14.73;6.83;;;11.20;99.90;;;;;;5055297;28;20182;-61
2023/05/25 03:29:18;;;;;;;22.67;7.40;;;11.20;99.90;;;;;;5055362;28;20181;-62
2023/05/25 03:31:44;;;;;;;16.47;7.80;;;11.20;99.90;;;;;;5054816;28;20536;-62
2023/05/25 03:34:10;;;;;;;16.77;6.57;;;11.20;99.90;;;;;;5057383;28;20243;-62
2023/05/25 03:36:37;;;;;;;16.87;7.63;;;11.20;99.90;;;;;;5055270;28;20212;-62
2023/05/25 03:39:03;;;;;;;16.30;7.30;;;11.20;99.90;;;;;;5054810;28;20200;-62
2023/05/25 03:41:29;;;;;;;14.90;6.73;;;11.20;99.90;;;;;;5055454;28;20177;-62
2023/05/25 03:43:55;;;;;;;14.33;8.00;;;11.20;99.90;;;;;;5055677;28;20470;-62
2023/05/25 03:46:20;;;;;;;16.20;7.80;;;11.20;99.90;;;;;;5055591;28;20173;-62
2023/05/25 03:48:46;;;;;;;17.60;7.33;;;11.20;99.90;;;;;;5055709;28;20448;-62
2023/05/25 03:51:12;;;;;;;17.47;7.73;;;11.30;99.90;;;;;;5053898;28;20357;-62
2023/05/25 03:53:46;;;;;;;14.50;6.83;;;11.20;99.90;;;;;;5057014;28;20330;-63
2023/05/25 03:56:12;;;;;;;17.77;6.80;;;11.30;99.90;;;;;;5051645;28;20204;-62
2023/05/25 03:58:37;;;;;;;12.23;7.27;;;11.30;99.90;;;;;;5052357;28;20453;-63
2023/05/25 04:01:03;;;;;;;16.93;7.20;;;11.30;99.90;;;;;;5050528;28;20186;-62
2023/05/25 04:03:31;;;;;;;21.00;7.67;;;11.30;99.90;;;;;;5051126;28;20173;-63
2023/05/25 04:05:59;;;;;;;13.70;6.40;;;11.30;99.90;;;;;;5050428;28;20573;-62
2023/05/25 04:08:25;;;;;;;12.73;6.37;;;11.20;99.90;;;;;;5049341;28;20549;-62
2023/05/25 04:10:50;;;;;;;11.97;7.10;;;11.20;99.90;;;;;;5050424;28;20166;-62
2023/05/25 04:13:16;;;;;;;15.77;7.33;;;11.20;99.90;;;;;;5051237;28;20173;-62
2023/05/25 04:15:42;;;;;;;10.77;5.57;;;11.20;99.90;;;;;;5049815;28;20272;-61
2023/05/25 04:18:07;;;;;;;13.47;6.60;;;11.20;99.90;;;;;;5048066;28;20466;-62
2023/05/25 04:20:33;;;;;;;14.37;6.30;;;11.20;99.90;;;;;;5048375;28;20244;-62
2023/05/25 04:22:59;;;;;;;10.70;6.17;;;11.20;99.90;;;;;;5049209;28;20278;-62
2023/05/25 04:25:24;;;;;;;13.50;6.40;;;11.20;99.90;;;;;;5050077;28;20173;-62
2023/05/25 04:27:50;;;;;;;10.57;5.93;;;11.20;99.90;;;;;;5047433;28;20177;-62
2023/05/25 04:30:16;;;;;;;15.43;6.30;;;11.20;99.90;;;;;;5046420;28;20238;-61
2023/05/25 04:32:44;;;;;;;19.57;6.53;;;11.20;99.90;;;;;;5046793;28;20181;-62
2023/05/25 04:35:10;;;;;;;10.10;5.87;;;11.20;99.90;;;;;;5047980;28;20177;-61
2023/05/25 04:37:35;;;;;;;15.73;6.10;;;11.20;99.90;;;;;;5048090;28;20278;-62
2023/05/25 04:40:12;;;;;;;12.43;5.53;;;11.20;99.90;;;;;;5047831;28;20231;-62
2023/05/25 04:42:38;;;;;;;12.90;6.03;;;11.20;99.90;;;;;;5046640;28;20298;-62
2023/05/25 04:45:06;;;;;;;14.40;5.20;;;11.20;99.90;;;;;;5048148;28;20483;-62
2023/05/25 04:47:33;;;;;;;14.50;5.60;;;11.20;99.90;;;;;;5046886;28;20585;-62
2023/05/25 04:50:00;;;;;;;13.07;5.97;;;11.20;99.90;;;;;;5045516;28;20178;-61
2023/05/25 04:52:25;;;;;;;17.07;6.00;;;11.20;99.90;;;;;;5044875;28;20243;-62
2023/05/25 04:54:52;;;;;;;11.57;5.23;;;11.20;99.90;;;;;;5044733;28;20181;-62
2023/05/25 04:57:18;;;;;;;7.67;4.00;;;11.30;99.90;;;;;;5044690;28;20212;-61
2023/05/25 04:59:43;;;;;;;13.77;6.40;;;11.30;99.90;;;;;;5045661;28;20334;-62
2023/05/25 05:02:09;;;;;;;12.07;5.60;;;11.30;99.90;;;;;;5044060;28;20178;-61
2023/05/25 05:04:36;;;;;;;9.17;4.40;;;11.40;99.90;;;;;;5044762;28;20181;-62
2023/05/25 05:07:02;;;;;;;14.53;5.50;;;11.40;99.90;;;;;;5044655;28;20196;-63
2023/05/25 05:09:27;;;;;;;15.93;5.83;;;11.40;99.90;;;;;;5042454;28;20577;-62
2023/05/25 05:11:53;;;;;;;15.67;5.50;;;11.40;99.90;;;;;;5041856;28;20253;-62
2023/05/25 05:14:19;;;;;;;15.87;5.37;;;11.40;99.90;;;;;;5042308;28;20433;-62
2023/05/25 05:16:46;;;;;;;14.30;5.23;;;11.40;99.90;;;;;;5040443;28;20575;-61
2023/05/25 05:19:12;;;;;;;9.67;4.87;;;11.40;99.90;;;;;;5043923;28;20566;-62
2023/05/25 05:21:38;;;;;;;11.03;4.97;;;11.40;99.90;;;;;;5044226;28;20629;-62
2023/05/25 05:24:04;;;;;;;16.50;5.37;;;11.50;99.90;;;;;;5043710;28;20165;-62
2023/05/25 05:26:30;;;;;;;11.67;4.27;;;11.50;99.90;;;;;;5044670;28;20344;-62
2023/05/25 05:28:55;;;;;;;13.07;5.83;;;11.50;99.90;;;;;;5045925;28;20361;-62
2023/05/25 05:31:22;;;;;;;11.80;4.93;;;11.50;99.90;;;;;;5047102;28;20389;-62
2023/05/25 05:33:48;;;;;;;11.27;5.27;;;11.50;99.90;;;;;;5046622;28;20166;-62
2023/05/25 05:36:14;;;;;;;15.13;5.43;;;11.50;99.90;;;;;;5042805;28;20205;-62
2023/05/25 05:38:40;;;;;;;15.17;5.63;;;11.50;99.90;;;;;;5043901;28;20245;-62
2023/05/25 05:41:12;;;;;;;8.67;4.17;;;11.50;99.90;;;;;;5043461;28;20170;-62
2023/05/25 05:43:38;;;;;;;13.43;4.43;;;11.50;99.90;;;;;;5040212;28;20174;-62
2023/05/25 05:46:04;;;;;;;12.17;4.80;;;11.50;99.90;;;;;;5040479;28;20375;-62
2023/05/25 05:48:29;;;;;;;12.83;4.90;;;11.60;99.90;;;;;;5038337;28;20169;-62
2023/05/25 05:50:55;;;;;;;11.53;4.43;;;11.60;99.90;;;;;;5037695;28;20268;-62
2023/05/25 05:53:21;;;;;;;14.93;4.97;;;11.60;99.90;;;;;;5037857;28;20227;-61
2023/05/25 05:55:48;;;;;;;11.73;5.00;;;11.60;99.90;;;;;;5039288;28;20519;-62
2023/05/25 05:58:13;;;;;;;11.13;4.63;;;11.60;99.90;;;;;;5038548;28;20169;-62
2023/05/25 06:00:39;;;;;;;10.87;3.87;;;11.60;99.90;;;;;;5039794;28;20193;-62
2023/05/25 06:03:04;;;;;;;17.57;5.97;;;11.60;99.90;;;;;;5036795;28;20180;-61
2023/05/25 06:05:30;;;;;;;12.63;4.23;;;11.70;99.90;;;;;;5038924;28;20173;-61
2023/05/25 06:07:56;;;;;;;11.10;4.23;;;11.70;99.90;;;;;;5038928;28;20337;-61
2023/05/25 06:10:22;;;;;;;18.37;4.87;;;11.70;99.90;;;;;;5036817;28;20169;-62
2023/05/25 06:12:48;;;;;;;14.93;5.87;;;11.70;99.90;;;;;;5035754;28;20174;-62
2023/05/25 06:15:13;;;;;;;12.07;3.83;;;11.70;99.90;;;;;;5037012;28;20482;-62
2023/05/25 06:17:39;;;;;;;10.63;4.13;;;11.80;99.90;;;;;;5037888;28;20202;-63
2023/05/25 06:20:05;;;;;;;14.33;4.37;;;11.80;99.90;;;;;;5037382;28;20326;-62
2023/05/25 06:22:32;;;;;;;11.97;4.77;;;11.80;99.90;;;;;;5037748;28;20276;-63
2023/05/25 06:24:57;;;;;;;9.13;3.70;;;11.80;99.90;;;;;;5032826;28;20173;-62
2023/05/25 06:27:23;;;;;;;11.40;4.50;;;11.90;99.90;;;;;;5034330;28;20279;-62
2023/05/25 06:29:49;;;;;;;14.73;4.70;;;11.90;99.90;;;;;;5033196;28;20268;-64
2023/05/25 06:32:15;;;;;;;16.30;5.03;;;11.90;99.90;;;;;;5031693;28;20173;-62
2023/05/25 06:34:40;;;;;;;19.93;5.40;;;11.90;99.90;;;;;;5031921;28;20365;-62
2023/05/25 06:37:06;;;;;;;13.63;4.97;;;11.90;99.90;;;;;;5032443;28;20615;-62
2023/05/25 06:39:32;;;;;;;13.63;4.33;;;11.90;99.90;;;;;;5035237;28;20184;-62
2023/05/25 06:41:57;;;;;;;15.57;4.87;;;12.00;99.90;;;;;;5034199;28;20227;-62
2023/05/25 06:44:23;;;;;;;15.00;4.33;;;12.00;99.90;;;;;;5039514;28;20181;-62
2023/05/25 06:46:48;;;;;;;12.60;4.13;;;12.00;99.90;;;;;;5040111;28;20453;-62
2023/05/25 06:49:14;;;;;;;14.57;4.93;;;12.00;99.90;;;;;;5039953;28;20183;-62
2023/05/25 06:51:40;;;;;;;9.87;4.07;;;12.00;99.90;;;;;;5041812;28;20235;-62
2023/05/25 06:54:07;;;;;;;11.93;3.83;;;12.10;99.90;;;;;;5041421;28;20184;-62
2023/05/25 06:56:32;;;;;;;18.30;6.47;;;12.10;99.90;;;;;;5038068;28;20229;-62
2023/05/25 06:58:58;;;;;;;21.33;4.80;;;12.10;99.90;;;;;;5035777;28;20486;-62
2023/05/25 07:01:24;;;;;;;15.47;3.87;;;12.10;99.90;;;;;;5033822;28;20276;-61
2023/05/25 07:03:50;;;;;;;18.90;4.80;;;12.20;99.90;;;;;;5030869;28;20313;-61
2023/05/25 07:06:16;;;;;;;14.37;4.63;;;12.20;99.90;;;;;;5029186;28;20369;-62
2023/05/25 07:08:41;;;;;;;16.37;4.63;;;12.10;99.90;;;;;;5028949;28;20252;-62
2023/05/25 07:11:11;;;;;;;10.77;3.47;;;12.20;99.90;;;;;;5029635;28;20307;-62
2023/05/25 07:13:36;;;;;;;16.27;4.87;;;12.20;99.90;;;;;;5028034;28;20169;-62
2023/05/25 07:16:02;;;;;;;15.90;4.80;;;12.30;99.90;;;;;;5026809;28;20203;-61
2023/05/25 07:18:27;;;;;;;13.83;4.53;;;12.30;99.90;;;;;;5027830;28;20301;-62
2023/05/25 07:20:53;;;;;;;18.97;4.73;;;12.40;99.90;;;;;;5029631;28;20480;-62
2023/05/25 07:23:19;;;;;;;11.60;4.07;;;12.40;99.90;;;;;;5032527;28;20166;-62
2023/05/25 07:25:45;;;;;;;19.57;4.17;;;12.40;99.90;;;;;;5033841;28;20319;-62
2023/05/25 07:28:10;;;;;;;16.30;4.20;;;12.40;99.90;;;;;;5033725;28;20664;-62
2023/05/25 07:30:36;;;;;;;12.63;4.00;;;12.50;99.90;;;;;;5037548;28;20172;-62
2023/05/25 07:33:01;;;;;;;14.53;4.53;;;12.50;99.90;;;;;;5037810;28;20195;-62
2023/05/25 07:35:27;;;;;;;14.07;4.07;;;12.50;99.90;;;;;;5035336;28;20185;-63
2023/05/25 07:38:00;;;;;;;12.10;4.43;;;12.50;99.90;;;;;;5035620;28;20456;-62
2023/05/25 07:40:27;;;;;;;16.33;4.23;;;12.60;99.90;;;;;;5038055;28;20476;-62
2023/05/25 07:42:53;;;;;;;13.50;4.50;;;12.60;99.90;;;;;;5036277;28;20372;-62
2023/05/25 07:45:24;;;;;;;15.73;4.87;;;12.60;99.90;;;;;;5028302;28;20165;-61
2023/05/25 07:47:51;;;;;;;14.80;5.27;;;12.70;99.90;;;;;;5041301;28;20224;-62
2023/05/25 07:50:17;;;;;;;19.07;4.90;;;12.70;99.90;;;;;;5045454;28;20169;-61
2023/05/25 07:52:43;;;;;;;14.97;4.63;;;12.70;99.90;;;;;;5043119;28;20177;-62
2023/05/25 07:55:09;;;;;;;20.13;5.27;;;12.70;99.90;;;;;;5040601;28;20195;-62
2023/05/25 07:57:35;;;;;;;17.63;5.07;;;12.80;99.90;;;;;;5021658;28;20205;-62
2023/05/25 08:00:01;;;;;;;21.60;5.00;;;12.90;99.90;;;;;;5035002;28;20730;-61
2023/05/25 08:02:28;;;;;;;16.63;3.97;;;12.90;99.90;;;;;;5038988;28;20238;-61
2023/05/25 08:04:53;;;;;;;14.73;4.23;;;12.90;99.90;;;;;;5029497;28;20178;-61
2023/05/25 08:07:19;;;;;;;19.03;6.30;;;12.90;99.90;;;;;;5036005;28;20173;-61
2023/05/25 08:09:45;;;;;;;16.97;4.73;;;12.90;99.90;;;;;;5044130;28;20265;-62
2023/05/25 08:12:10;;;;;;;19.33;4.80;;;12.90;99.90;;;;;;5043063;28;20300;-61
2023/05/25 08:14:36;;;;;;;18.13;4.53;;;13.00;99.90;;;;;;5045114;28;20553;-65
2023/05/25 08:17:03;;;;;;;13.53;4.30;;;13.00;99.90;;;;;;5045274;28;20572;-64
2023/05/25 08:19:32;;;;;;;13.63;4.53;;;13.10;99.90;;;;;;5045063;28;20315;-65
2023/05/25 08:21:58;;;;;;;14.60;5.20;;;13.10;99.90;;;;;;5044889;28;20428;-65
2023/05/25 08:24:24;;;;;;;21.20;4.47;;;13.20;99.90;;;;;;5042899;28;20206;-61
2023/05/25 08:26:50;;;;;;;13.90;4.27;;;13.20;99.90;;;;;;5043496;28;20263;-61
2023/05/25 08:29:15;;;;;;;23.80;5.33;;;13.20;99.90;;;;;;5042807;28;20776;-61
2023/05/25 08:31:42;;;;;;;20.53;5.50;;;13.30;99.90;;;;;;5044139;28;20610;-61
2023/05/25 08:34:08;;;;;;;13.33;4.10;;;13.20;99.90;;;;;;5042806;28;20162;-61
2023/05/25 08:36:36;;;;;;;13.87;4.47;;;13.30;99.90;;;;;;5043137;28;20266;-61
2023/05/25 08:39:03;;;;;;;15.70;4.67;;;13.30;99.90;;;;;;5044050;28;20169;-61
2023/05/25 08:41:29;;;;;;;11.07;4.30;;;13.30;99.90;;;;;;5044823;28;20702;-62
2023/05/25 08:43:55;;;;;;;14.87;5.63;;;13.30;99.90;;;;;;5045054;28;20196;-61
2023/05/25 08:46:30;;;;;;;18.00;4.93;;;13.40;99.90;;;;;;5045447;28;20170;-61
2023/05/25 08:49:08;;;;;;;21.87;4.90;;;13.40;99.90;;;;;;5036229;28;20219;-61
2023/05/25 08:51:36;;;;;;;17.87;5.00;;;13.50;99.90;;;;;;5035320;28;20170;-61
2023/05/25 08:54:11;;;;;;;23.67;5.87;;;13.50;99.90;;;;;;5035429;28;20242;-61
2023/05/25 08:56:47;;;;;;;14.47;4.97;;;13.60;99.90;;;;;;5034880;28;20275;-61
2023/05/25 08:59:40;;;;;;;15.33;4.97;;;13.60;99.90;;;;;;5035786;28;20176;-62
2023/05/25 09:02:34;;;;;;;16.90;4.90;;;13.60;99.90;;;;;;5034548;28;20169;-61
2023/05/25 09:05:01;;;;;;;20.83;5.83;;;13.70;99.90;;;;;;5026449;28;20808;-61
2023/05/25 09:07:30;;;;;;;21.77;6.13;;;13.70;99.90;;;;;;5034629;28;20249;-62
2023/05/25 09:09:57;;;;;;;13.43;4.23;;;13.70;99.90;;;;;;5033679;28;20208;-61
2023/05/25 09:12:23;;;;;;;16.07;4.90;;;13.70;99.90;;;;;;5033482;28;20591;-61
2023/05/25 09:14:49;;;;;;;14.47;4.23;;;13.80;99.90;;;;;;5029763;28;20186;-62
2023/05/25 09:17:15;;;;;;;14.70;4.70;;;13.90;99.90;;;;;;5028245;28;20205;-62
2023/05/25 09:19:42;;;;;;;21.00;5.30;;;14.00;99.90;;;;;;5027840;28;20299;-61
2023/05/25 09:22:09;;;;;;;15.57;4.47;;;14.00;99.90;;;;;;5032780;28;20181;-62
2023/05/25 09:24:35;;;;;;;15.67;3.80;;;14.00;99.90;;;;;;5030392;28;20456;-61
2023/05/25 09:27:02;;;;;;;13.40;4.30;;;14.00;99.90;;;;;;5032780;28;20276;-62
2023/05/25 09:29:28;;;;;;;17.47;4.13;;;14.10;99.90;;;;;;5035631;28;20173;-61
2023/05/25 09:31:55;;;;;;;16.97;5.00;;;14.10;99.90;;;;;;5036797;28;20189;-62
2023/05/25 09:34:21;;;;;;;17.50;4.30;;;14.20;99.90;;;;;;5046595;28;20196;-60
2023/05/25 09:36:46;;;;;;;17.87;4.80;;;14.20;99.90;;;;;;5043826;28;20243;-62
2023/05/25 09:39:15;;;;;;;15.93;4.37;;;14.30;99.90;;;;;;5038827;28;20425;-61
2023/05/25 09:41:42;;;;;;;11.50;4.37;;;14.40;99.90;;;;;;5037139;28;20535;-60
2023/05/25 09:44:08;;;;;;;16.30;4.60;;;14.40;99.90;;;;;;5034999;28;20197;-61
2023/05/25 09:46:37;;;;;;;18.97;4.90;;;14.50;99.90;;;;;;5035492;28;20571;-59
2023/05/25 09:49:07;;;;;;;17.93;4.70;;;14.50;99.90;;;;;;5033308;28;20270;-60
2023/05/25 09:51:37;;;;;;;12.30;4.07;;;14.50;99.90;;;;;;5033834;28;20331;-60
2023/05/25 09:54:03;;;;;;;17.73;4.37;;;14.50;99.90;;;;;;5034250;28;20306;-60
2023/05/25 09:56:31;;;;;;;12.33;4.20;;;14.50;99.90;;;;;;5032751;28;20500;-59
2023/05/25 09:58:57;;;;;;;11.50;4.30;;;14.60;99.90;;;;;;5037066;28;20208;-60
2023/05/25 10:01:23;;;;;;;13.27;4.20;;;14.60;99.90;;;;;;5041455;28;20233;-61
2023/05/25 10:03:55;;;;;;;23.50;6.47;;;14.60;99.90;;;;;;5046117;28;20173;-60
2023/05/25 10:06:21;;;;;;;21.90;5.63;;;14.60;99.90;;;;;;5045619;28;20177;-61
2023/05/25 10:08:48;;;;;;;18.30;4.80;;;14.70;99.90;;;;;;5047644;28;20216;-60
2023/05/25 10:11:15;;;;;;;16.90;5.93;;;14.70;99.90;;;;;;5046088;28;20205;-60
2023/05/25 10:13:44;;;;;;;14.43;4.50;;;14.80;99.90;;;;;;5045296;28;20181;-61
2023/05/25 10:16:16;;;;;;;19.50;4.97;;;14.80;99.90;;;;;;5046148;28;20290;-60
2023/05/25 10:18:57;;;;;;;13.87;4.63;;;14.90;99.90;;;;;;5045680;28;20180;-62
2023/05/25 10:21:26;;;;;;;18.87;4.33;;;14.90;99.90;;;;;;5049762;28;20235;-60
2023/05/25 10:23:56;;;;;;;13.07;4.27;;;14.90;99.90;;;;;;5050391;28;20173;-62
2023/05/25 10:26:25;;;;;;;18.23;4.40;;;14.90;99.90;;;;;;5051463;28;20187;-62
2023/05/25 10:28:54;;;;;;;13.17;4.23;;;15.00;99.90;;;;;;5052976;28;20177;-63
2023/05/25 10:31:20;;;;;;;24.77;6.07;;;15.00;99.90;;;;;;5052687;28;20181;-63
2023/05/25 10:33:46;;;;;;;18.17;5.13;;;15.10;99.90;;;;;;5045452;28;20280;-60
2023/05/25 10:36:12;;;;;;;19.53;5.30;;;15.10;99.90;;;;;;5040024;28;20639;-62
2023/05/25 10:38:43;;;;;;;16.40;4.73;;;15.10;99.90;;;;;;5038883;28;20718;-60
2023/05/25 10:41:10;;;;;;;16.83;4.27;;;15.10;99.90;;;;;;5022113;28;20341;-60
2023/05/25 10:43:39;;;;;;;12.97;4.53;;;15.20;99.90;;;;;;5039922;28;20386;-61
2023/05/25 10:46:05;;;;;;;23.33;5.83;;;15.20;99.90;;;;;;5038740;28;20172;-60
2023/05/25 10:48:38;;;;;;;13.20;4.00;;;15.20;99.90;;;;;;5033966;28;20200;-61
2023/05/25 10:51:05;;;;;;;16.70;5.37;;;15.30;99.90;;;;;;5031499;28;20228;-61
2023/05/25 10:53:31;;;;;;;11.23;3.90;;;15.40;99.90;;;;;;5029788;28;20173;-60
2023/05/25 10:56:00;;;;;;;16.43;4.43;;;15.50;99.90;;;;;;5030083;28;20260;-60
2023/05/25 10:58:27;;;;;;;20.27;5.50;;;15.60;99.90;;;;;;5031236;28;20173;-59
2023/05/25 11:01:05;;;;;;;17.43;4.87;;;15.60;99.90;;;;;;5031027;28;20184;-60
2023/05/25 11:03:43;;;;;;;15.10;3.87;;;15.60;99.90;;;;;;5030794;28;20161;-60
2023/05/25 11:06:10;;;;;;;14.03;4.57;;;15.60;99.90;;;;;;5033435;28;20349;-60
2023/05/25 11:08:50;;;;;;;19.10;5.20;;;15.60;99.90;;;;;;5034353;28;20492;-60
2023/05/25 11:11:16;;;;;;;21.07;5.27;;;15.70;99.90;;;;;;5034805;28;20193;-61
2023/05/25 11:13:46;;;;;;;16.27;5.10;;;15.70;99.90;;;;;;5031919;28;20551;-60
2023/05/25 11:16:16;;;;;;;11.93;4.60;;;15.80;99.90;;;;;;5030581;28;20178;-60
2023/05/25 11:18:48;;;;;;;19.83;4.90;;;15.80;99.90;;;;;;5031889;28;20231;-61
2023/05/25 11:21:21;;;;;;;17.43;5.03;;;15.80;99.90;;;;;;5031104;28;20165;-63
2023/05/25 11:23:53;;;;;;;17.43;4.50;;;15.80;99.90;;;;;;5029779;28;20170;-61
2023/05/25 11:26:50;;;;;;;13.97;4.83;;;15.80;99.90;;;;;;5028329;28;20392;-61
2023/05/25 11:29:18;;;;;;;18.10;4.87;;;15.90;99.90;;;;;;5024342;28;20176;-61
2023/05/25 11:31:50;;;;;;;12.43;4.83;;;16.00;99.90;;;;;;5025280;28;20802;-61
2023/05/25 11:34:17;;;;;;;17.07;4.47;;;16.20;99.90;;;;;;5023655;28;20541;-60
2023/05/25 11:36:46;;;;;;;14.43;4.90;;;16.30;99.90;;;;;;5025069;28;20341;-61
2023/05/25 11:39:12;;;;;;;22.03;5.10;;;16.40;99.90;;;;;;5030473;28;20173;-60
2023/05/25 11:41:41;;;;;;;18.40;5.43;;;16.50;99.90;;;;;;5025894;28;20393;-61
2023/05/25 11:44:06;;;;;;;19.07;5.97;;;16.60;99.90;;;;;;5028495;28;20421;-61
2023/05/25 11:46:33;;;;;;;20.07;5.23;;;16.60;99.90;;;;;;5032031;28;20560;-61
2023/05/25 11:49:00;;;;;;;15.63;5.00;;;16.70;99.90;;;;;;5030635;28;20456;-61
2023/05/25 11:51:27;;;;;;;19.87;5.43;;;16.90;99.90;;;;;;5029579;28;20169;-61
2023/05/25 11:53:54;;;;;;;21.97;6.07;;;16.90;99.90;;;;;;5028814;28;20723;-61
2023/05/25 11:56:21;;;;;;;13.87;4.53;;;17.00;99.90;;;;;;5032869;28;20261;-61
2023/05/25 11:58:48;;;;;;;19.73;4.97;;;17.10;99.90;;;;;;5031420;28;20256;-61
2023/05/25 12:01:19;;;;;;;18.97;4.93;;;17.20;99.90;;;;;;5029795;28;20427;-60
2023/05/25 12:03:49;;;;;;;14.83;5.13;;;17.30;99.90;;;;;;5031707;28;20180;-61
2023/05/25 12:06:37;;;;;;;14.90;4.90;;;17.40;99.90;;;;;;5032057;28;20170;-61
2023/05/25 12:09:09;;;;;;;16.87;4.67;;;17.40;99.90;;;;;;5032322;28;20166;-61
2023/05/25 12:11:44;;;;;;;18.40;4.87;;;17.40;99.90;;;;;;5030811;28;20427;-61
2023/05/25 12:14:10;;;;;;;13.60;5.27;;;17.50;99.90;;;;;;5028534;28;20396;-61
2023/05/25 12:16:40;;;;;;;19.37;4.87;;;17.50;99.90;;;;;;5028511;28;20185;-61
2023/05/25 12:19:06;;;;;;;13.13;4.43;;;17.70;99.90;;;;;;5027401;28;20213;-61
2023/05/25 12:21:32;;;;;;;13.73;4.40;;;17.80;99.90;;;;;;5027622;28;20234;-61
2023/05/25 12:23:59;;;;;;;16.93;5.13;;;18.00;99.90;;;;;;5027091;28;20494;-61
2023/05/25 12:26:25;;;;;;;14.80;4.87;;;18.10;99.90;;;;;;5028615;28;20162;-61
2023/05/25 12:28:59;;;;;;;16.90;5.83;;;18.20;99.90;;;;;;5028576;28;20169;-61
2023/05/25 12:31:27;;;;;;;18.10;5.63;;;18.30;99.90;;;;;;5034827;28;20181;-61
2023/05/25 12:34:09;;;;;;;17.60;4.67;;;18.20;99.90;;;;;;5040204;28;20268;-61
2023/05/25 12:36:46;;;;;;;14.80;5.17;;;18.30;99.90;;;;;;5040407;28;20207;-62
2023/05/25 12:39:14;;;;;;;21.23;6.27;;;18.40;99.90;;;;;;5033278;28;20173;-61